createdAt,value
2023-04-18T00:00:28.743Z,5.00
2023-04-18T00:03:22.796Z,4.30
2023-04-18T00:06:16.818Z,4.80
2023-04-18T00:09:10.917Z,5.00
2023-04-18T00:12:04.980Z,4.70
2023-04-18T00:15:00.567Z,5.30
2023-04-18T00:17:56.519Z,4.90
2023-04-18T00:20:50.301Z,4.00
2023-04-18T00:23:46.050Z,4.70
2023-04-18T00:26:39.631Z,4.50
2023-04-18T00:29:33.438Z,4.90
2023-04-18T00:32:27.150Z,3.60
2023-04-18T00:35:21.611Z,4.60
2023-04-18T00:38:15.165Z,4.70
2023-04-18T00:41:08.939Z,5.00
2023-04-18T00:43:48.239Z,3.50
2023-04-18T00:46:42.134Z,3.90
2023-04-18T00:49:36.006Z,4.30
2023-04-18T00:52:30.156Z,4.30
2023-04-18T00:55:25.044Z,5.20
2023-04-18T00:58:19.144Z,5.00
2023-04-18T01:01:13.591Z,4.50
2023-04-18T01:04:07.987Z,5.10
2023-04-18T01:07:02.517Z,4.60
2023-04-18T01:09:56.700Z,4.50
2023-04-18T01:12:50.289Z,4.90
2023-04-18T01:15:47.471Z,6.70
2023-04-18T01:18:41.123Z,4.90
2023-04-18T01:21:37.050Z,4.20
2023-04-18T01:24:32.544Z,3.50
2023-04-18T01:27:26.226Z,5.40
2023-04-18T01:30:20.091Z,4.30
2023-04-18T01:33:13.874Z,4.40
2023-04-18T01:36:08.056Z,4.70
2023-04-18T01:39:02.014Z,3.90
2023-04-18T01:41:55.706Z,4.20
2023-04-18T01:44:49.526Z,3.40
2023-04-18T01:47:43.233Z,4.10
2023-04-18T01:50:37.332Z,4.20
2023-04-18T01:53:30.952Z,4.60
2023-04-18T01:56:24.605Z,4.40
2023-04-18T01:59:18.243Z,4.90
2023-04-18T02:02:12.268Z,3.80
2023-04-18T02:05:06.419Z,4.50
2023-04-18T02:08:00.368Z,4.30
2023-04-18T02:10:54.091Z,3.70
2023-04-18T02:13:47.832Z,6.10
2023-04-18T02:16:41.734Z,4.20
2023-04-18T02:19:35.571Z,4.00
2023-04-18T02:22:29.350Z,3.40
2023-04-18T02:25:23.623Z,5.10
2023-04-18T02:28:17.278Z,3.10
2023-04-18T02:31:14.862Z,5.20
2023-04-18T02:34:09.033Z,3.60
2023-04-18T02:36:43.243Z,3.50
2023-04-18T02:39:36.799Z,3.40
2023-04-18T02:42:30.746Z,5.60
2023-04-18T02:45:24.829Z,3.00
2023-04-18T02:48:18.544Z,4.10
2023-04-18T02:51:12.381Z,3.00
2023-04-18T02:54:06.438Z,5.10
2023-04-18T02:57:00.134Z,3.90
2023-04-18T02:59:53.830Z,3.70
2023-04-18T03:02:47.523Z,3.40
2023-04-18T03:05:41.699Z,4.20
2023-04-18T03:08:35.379Z,3.70
2023-04-18T03:11:29.046Z,3.50
2023-04-18T03:14:22.673Z,4.00
2023-04-18T03:17:16.494Z,3.30
2023-04-18T03:20:12.269Z,3.60
2023-04-18T03:23:06.123Z,3.90
2023-04-18T03:26:00.222Z,3.90
2023-04-18T03:28:53.801Z,3.70
2023-04-18T03:31:47.732Z,4.50
2023-04-18T03:34:41.474Z,4.70
2023-04-18T03:37:35.235Z,4.90
2023-04-18T03:40:29.003Z,6.20
2023-04-18T03:43:23.008Z,4.50
2023-04-18T03:46:16.638Z,5.70
2023-04-18T03:49:10.273Z,4.90
2023-04-18T03:52:03.842Z,5.50
2023-04-18T03:54:58.072Z,9.10
2023-04-18T03:57:51.833Z,5.90
2023-04-18T04:00:45.473Z,5.40
2023-04-18T04:03:39.329Z,7.40
2023-04-18T04:06:33.614Z,6.20
2023-04-18T04:09:27.526Z,7.30
2023-04-18T04:12:21.586Z,6.40
2023-04-18T04:15:16.369Z,5.70
2023-04-18T04:18:10.232Z,6.40
2023-04-18T04:21:04.946Z,6.50
2023-04-18T04:23:58.898Z,8.10
2023-04-18T04:26:52.599Z,6.80
2023-04-18T04:29:46.493Z,7.60
2023-04-18T04:32:40.318Z,7.00
2023-04-18T04:35:34.761Z,7.80
2023-04-18T04:38:34.865Z,8.00
2023-04-18T04:41:29.394Z,7.50
2023-04-18T04:44:26.114Z,8.40
2023-04-18T04:47:19.802Z,8.00
2023-04-18T04:50:15.598Z,7.90
2023-04-18T04:53:09.878Z,8.20
2023-04-18T04:56:04.766Z,7.40
2023-04-18T04:58:58.496Z,7.70
2023-04-18T05:01:52.801Z,7.80
2023-04-18T05:04:46.427Z,7.90
2023-04-18T05:07:40.586Z,12.80
2023-04-18T05:10:37.397Z,12.20
2023-04-18T05:13:31.033Z,10.20
2023-04-18T05:16:24.796Z,10.20
2023-04-18T05:19:18.410Z,7.30
2023-04-18T05:22:12.052Z,9.60
2023-04-18T05:25:06.384Z,10.80
2023-04-18T05:28:01.273Z,10.60
2023-04-18T05:31:01.511Z,9.60
2023-04-18T05:33:55.841Z,10.60
2023-04-18T05:36:49.623Z,9.90
2023-04-18T05:39:44.169Z,9.40
2023-04-18T05:42:37.940Z,9.90
2023-04-18T05:45:32.258Z,9.80
2023-04-18T05:48:26.306Z,10.90
2023-04-18T05:51:20.186Z,11.50
2023-04-18T05:54:14.629Z,10.40
2023-04-18T05:57:08.420Z,12.20
2023-04-18T06:02:39.485Z,11.10
2023-04-18T06:05:36.569Z,11.10
2023-04-18T06:08:31.188Z,10.70
2023-04-18T06:11:25.328Z,8.90
2023-04-18T06:14:19.012Z,9.50
2023-04-18T06:17:13.940Z,13.80
2023-04-18T06:20:10.659Z,12.20
2023-04-18T06:23:04.612Z,12.30
2023-04-18T06:25:59.787Z,10.50
2023-04-18T06:28:53.440Z,10.70
2023-04-18T06:31:48.444Z,12.30
2023-04-18T06:34:42.519Z,9.70
2023-04-18T06:37:36.278Z,12.20
2023-04-18T06:40:30.136Z,10.30
2023-04-18T06:43:24.214Z,10.80
2023-04-18T06:46:18.267Z,10.90
2023-04-18T06:49:12.599Z,11.70
2023-04-18T06:52:06.620Z,8.70
2023-04-18T06:55:00.440Z,11.50
2023-04-18T06:57:54.153Z,9.20
2023-04-18T07:00:52.079Z,10.30
2023-04-18T07:03:46.245Z,9.90
2023-04-18T07:06:40.286Z,13.30
2023-04-18T07:09:34.323Z,11.70
2023-04-18T07:12:27.989Z,9.50
2023-04-18T07:15:22.012Z,9.70
2023-04-18T07:18:23.228Z,11.10
2023-04-18T07:21:21.098Z,10.20
2023-04-18T07:24:14.903Z,9.70
2023-04-18T07:27:09.549Z,10.90
2023-04-18T07:30:03.734Z,10.50
2023-04-18T07:32:57.685Z,11.30
2023-04-18T07:35:52.419Z,10.70
2023-04-18T07:38:46.621Z,10.40
2023-04-18T07:41:40.392Z,12.80
2023-04-18T07:44:36.009Z,9.80
2023-04-18T07:47:32.251Z,10.10
2023-04-18T07:50:27.227Z,9.20
2023-04-18T07:53:21.103Z,9.90
2023-04-18T07:56:15.672Z,10.40
2023-04-18T07:59:09.413Z,11.40
2023-04-18T08:01:48.337Z,12.20
2023-04-18T08:04:42.339Z,12.00
2023-04-18T08:07:36.224Z,13.50
2023-04-18T08:10:29.993Z,13.00
2023-04-18T08:13:24.044Z,10.90
2023-04-18T08:16:17.817Z,12.10
2023-04-18T08:18:54.253Z,12.90
2023-04-18T08:21:47.998Z,12.20
2023-04-18T08:24:51.332Z,11.50
2023-04-18T08:27:55.802Z,13.90
2023-04-18T08:30:50.389Z,11.40
2023-04-18T08:33:44.344Z,12.00
2023-04-18T08:36:38.097Z,13.40
2023-04-18T08:39:22.713Z,9.60
2023-04-18T08:42:19.269Z,13.70
2023-04-18T08:45:15.090Z,10.30
2023-04-18T08:48:13.171Z,11.80
2023-04-18T08:51:08.086Z,10.90
2023-04-18T08:54:04.577Z,10.90
2023-04-18T08:57:13.253Z,12.20
2023-04-18T09:00:11.423Z,9.80
2023-04-18T09:03:06.800Z,8.40
2023-04-18T09:06:14.187Z,10.50
2023-04-18T09:09:08.694Z,9.90
2023-04-18T09:12:14.384Z,10.20
2023-04-18T09:15:17.740Z,11.70
2023-04-18T09:17:56.235Z,9.80
2023-04-18T09:20:50.387Z,9.30
2023-04-18T09:23:47.093Z,9.20
2023-04-18T09:26:40.924Z,11.50
2023-04-18T09:29:49.463Z,9.20
2023-04-18T09:32:45.034Z,9.80
2023-04-18T09:35:39.193Z,10.20
2023-04-18T09:38:44.184Z,11.40
2023-04-18T09:41:37.783Z,7.20
2023-04-18T09:44:31.720Z,9.60
2023-04-18T09:47:25.375Z,8.20
2023-04-18T09:50:20.786Z,11.60
2023-04-18T09:53:17.316Z,10.80
2023-04-18T09:55:58.648Z,14.40
2023-04-18T09:59:01.005Z,8.70
2023-04-18T10:01:56.045Z,9.80
2023-04-18T10:04:52.819Z,9.30
2023-04-18T10:07:48.892Z,9.20
2023-04-18T10:10:42.966Z,8.40
2023-04-18T10:13:39.352Z,9.90
2023-04-18T10:16:35.648Z,9.00
2023-04-18T10:19:31.816Z,11.00
2023-04-18T10:22:30.920Z,9.30
2023-04-18T10:25:08.981Z,8.60
2023-04-18T10:28:04.281Z,7.80
2023-04-18T10:31:05.649Z,12.30
2023-04-18T10:34:05.549Z,10.00
2023-04-18T10:37:09.616Z,7.60
2023-04-18T10:40:06.598Z,11.90
2023-04-18T10:43:03.634Z,8.30
2023-04-18T10:46:28.313Z,8.70
2023-04-18T10:49:33.066Z,7.40
2023-04-18T10:52:27.708Z,8.40
2023-04-18T10:55:46.626Z,7.10
2023-04-18T10:58:42.215Z,7.40
2023-04-18T11:01:41.248Z,7.60
2023-04-18T11:04:35.098Z,6.90
2023-04-18T11:07:39.609Z,7.40
2023-04-18T11:10:33.372Z,9.30
2023-04-18T11:13:27.144Z,8.00
2023-04-18T11:16:32.527Z,7.60
2023-04-18T11:19:26.720Z,7.20
2023-04-18T11:22:21.009Z,7.90
2023-04-18T11:25:15.629Z,7.50
2023-04-18T11:28:13.452Z,6.10
2023-04-18T11:31:07.172Z,5.80
2023-04-18T11:34:02.999Z,7.00
2023-04-18T11:36:56.857Z,7.70
2023-04-18T11:39:53.102Z,6.40
2023-04-18T11:42:46.877Z,7.10
2023-04-18T11:45:40.578Z,6.70
2023-04-18T11:48:40.214Z,6.60
2023-04-18T11:51:38.665Z,7.40
2023-04-18T11:54:43.607Z,6.80
2023-04-18T11:57:37.413Z,7.30
2023-04-18T12:00:39.490Z,6.50
2023-04-18T12:03:33.614Z,8.90
2023-04-18T12:06:28.168Z,6.90
2023-04-18T12:09:24.578Z,7.10
2023-04-18T12:12:23.568Z,7.50
2023-04-18T12:15:21.794Z,4.80
2023-04-18T12:18:19.789Z,5.50
2023-04-18T12:21:13.893Z,5.30
2023-04-18T12:24:17.320Z,6.60
2023-04-18T12:27:13.640Z,5.80
2023-04-18T12:30:10.215Z,5.40
2023-04-18T12:33:05.160Z,5.70
2023-04-18T12:35:58.869Z,6.20
2023-04-18T12:38:52.509Z,7.10
2023-04-18T12:41:47.667Z,4.90
2023-04-18T12:44:43.377Z,14.60
2023-04-18T12:47:37.987Z,4.90
2023-04-18T12:50:31.763Z,6.30
2023-04-18T12:53:25.641Z,7.00
2023-04-18T12:56:19.383Z,5.70
2023-04-18T12:59:13.248Z,5.80
2023-04-18T13:02:07.584Z,5.50
2023-04-18T13:05:01.462Z,5.60
2023-04-18T13:08:08.481Z,5.40
2023-04-18T13:11:09.572Z,5.10
2023-04-18T13:14:03.347Z,9.10
2023-04-18T13:16:57.102Z,5.90
2023-04-18T13:19:51.139Z,6.50
2023-04-18T13:22:46.322Z,8.40
2023-04-18T13:25:40.014Z,8.00
2023-04-18T13:28:33.644Z,7.90
2023-04-18T13:31:27.926Z,6.30
2023-04-18T13:34:21.825Z,7.10
2023-04-18T13:37:15.543Z,5.70
2023-04-18T13:40:11.475Z,7.30
2023-04-18T13:43:05.375Z,5.70
2023-04-18T13:45:59.475Z,6.00
2023-04-18T13:48:53.409Z,8.70
2023-04-18T13:51:47.380Z,9.50
2023-04-18T13:54:41.405Z,8.00
2023-04-18T13:57:37.333Z,6.80
2023-04-18T14:00:31.422Z,10.20
2023-04-18T14:03:25.405Z,10.30
2023-04-18T14:06:19.405Z,12.50
2023-04-18T14:09:13.457Z,11.10
2023-04-18T14:12:07.956Z,13.40
2023-04-18T14:15:16.632Z,15.80
2023-04-18T14:18:10.724Z,19.70
2023-04-18T14:21:04.652Z,15.20
2023-04-18T14:23:58.515Z,14.00
2023-04-18T14:26:35.674Z,12.60
2023-04-18T14:29:29.368Z,20.80
2023-04-18T14:32:23.346Z,9.90
2023-04-18T14:35:17.528Z,10.80
2023-04-18T14:38:11.603Z,8.40
2023-04-18T14:41:06.525Z,7.00
2023-04-18T14:44:01.059Z,10.10
2023-04-18T14:46:54.766Z,11.70
2023-04-18T14:49:48.404Z,8.60
2023-04-18T14:52:50.768Z,10.40
2023-04-18T14:55:45.814Z,9.40
2023-04-18T14:58:39.617Z,9.80
2023-04-18T15:01:33.637Z,9.50
2023-04-18T15:04:28.118Z,8.90
2023-04-18T15:07:21.848Z,8.10
2023-04-18T15:10:16.165Z,8.80
2023-04-18T15:13:10.243Z,8.90
2023-04-18T15:16:04.348Z,7.00
2023-04-18T15:19:00.415Z,7.80
2023-04-18T15:21:54.440Z,11.10
2023-04-18T15:24:48.408Z,7.00
2023-04-18T15:27:42.297Z,6.20
2023-04-18T15:30:36.203Z,8.50
2023-04-18T15:33:33.192Z,6.60
2023-04-18T15:36:27.701Z,8.70
2023-04-18T15:39:23.466Z,8.00
2023-04-18T15:42:19.297Z,8.90
2023-04-18T15:45:14.501Z,9.90
2023-04-18T15:48:12.679Z,7.50
2023-04-18T15:51:07.944Z,9.40
2023-04-18T15:54:01.705Z,9.00
2023-04-18T15:56:58.371Z,7.80
2023-04-18T15:59:52.264Z,8.80
2023-04-18T16:02:47.222Z,8.00
2023-04-18T16:05:41.470Z,8.90
2023-04-18T16:08:35.174Z,8.50
2023-04-18T16:11:31.742Z,8.10
2023-04-18T16:14:25.620Z,11.70
2023-04-18T16:17:19.655Z,10.60
2023-04-18T16:20:14.545Z,12.70
2023-04-18T16:23:08.866Z,11.90
2023-04-18T16:26:02.860Z,8.70
2023-04-18T16:28:56.990Z,12.20
2023-04-18T16:31:52.432Z,8.80
2023-04-18T16:34:46.342Z,11.50
2023-04-18T16:37:41.060Z,8.20
2023-04-18T16:40:35.081Z,9.70
2023-04-18T16:43:30.941Z,10.10
2023-04-18T16:46:25.346Z,11.30
2023-04-18T16:49:20.487Z,11.70
2023-04-18T16:52:14.440Z,11.20
2023-04-18T16:55:09.627Z,8.60
2023-04-18T16:58:03.314Z,9.90
2023-04-18T17:00:57.120Z,11.80
2023-04-18T17:03:51.489Z,9.60
2023-04-18T17:06:45.554Z,12.10
2023-04-18T17:09:39.177Z,9.00
2023-04-18T17:12:33.202Z,9.10
2023-04-18T17:15:28.558Z,9.30
2023-04-18T17:18:22.274Z,8.70
2023-04-18T17:21:15.869Z,10.40
2023-04-18T17:24:10.783Z,9.50
2023-04-18T17:27:04.522Z,11.20
2023-04-18T17:29:58.174Z,9.20
2023-04-18T17:32:51.903Z,9.30
2023-04-18T17:35:45.907Z,11.30
2023-04-18T17:38:40.640Z,10.70
2023-04-18T17:41:38.529Z,12.50
2023-04-18T17:44:41.339Z,9.10
2023-04-18T17:47:35.208Z,10.30
2023-04-18T17:50:29.066Z,10.70
2023-04-18T17:53:22.904Z,13.70
2023-04-18T17:56:16.805Z,16.40
2023-04-18T17:59:11.175Z,12.70
2023-04-18T18:02:05.031Z,13.30
2023-04-18T18:04:59.190Z,12.20
2023-04-18T18:07:54.286Z,13.50
2023-04-18T18:10:49.842Z,14.00
2023-04-18T18:13:43.851Z,13.60
2023-04-18T18:16:40.327Z,10.50
2023-04-18T18:19:35.195Z,9.90
2023-04-18T18:22:29.233Z,13.80
2023-04-18T18:25:23.348Z,9.80
2023-04-18T18:28:17.404Z,10.40
2023-04-18T18:31:11.708Z,13.20
2023-04-18T18:34:05.459Z,12.30
2023-04-18T18:36:59.295Z,11.30
2023-04-18T18:39:54.879Z,10.80
2023-04-18T18:42:51.275Z,10.90
2023-04-18T18:45:45.581Z,10.00
2023-04-18T18:48:39.621Z,10.60
2023-04-18T18:51:33.743Z,10.60
2023-04-18T18:54:28.213Z,9.40
2023-04-18T18:57:21.915Z,11.20
2023-04-18T19:00:17.285Z,9.30
2023-04-18T19:03:11.010Z,11.30
2023-04-18T19:06:07.010Z,15.10
2023-04-18T19:09:00.767Z,24.60
2023-04-18T19:11:55.145Z,15.10
2023-04-18T19:14:50.483Z,13.00
2023-04-18T19:17:44.559Z,12.80
2023-04-18T19:20:40.906Z,13.80
2023-04-18T19:23:34.535Z,11.40
2023-04-18T19:26:28.338Z,12.60
2023-04-18T19:29:23.116Z,13.10
2023-04-18T19:32:16.848Z,12.00
2023-04-18T19:35:13.187Z,13.50
2023-04-18T19:38:07.037Z,13.40
2023-04-18T19:41:00.898Z,14.40
2023-04-18T19:43:54.564Z,18.20
2023-04-18T19:46:48.458Z,16.00
2023-04-18T19:49:42.435Z,11.60
2023-04-18T19:52:36.079Z,12.60
2023-04-18T19:55:29.874Z,11.20
2023-04-18T19:58:08.834Z,12.20
2023-04-18T20:01:02.579Z,13.30
2023-04-18T20:03:58.627Z,13.40
2023-04-18T20:06:53.493Z,11.60
2023-04-18T20:09:47.248Z,14.30
2023-04-18T20:12:41.032Z,13.00
2023-04-18T20:15:35.011Z,15.00
2023-04-18T20:18:28.673Z,14.40
2023-04-18T20:21:22.349Z,11.80
2023-04-18T20:24:16.300Z,13.10
2023-04-18T20:27:10.150Z,15.20
2023-04-18T20:30:04.510Z,13.20
2023-04-18T20:32:58.253Z,15.50
2023-04-18T20:35:53.679Z,12.70
2023-04-18T20:38:50.681Z,14.10
2023-04-18T20:41:46.589Z,14.80
2023-04-18T20:44:41.633Z,17.70
2023-04-18T20:47:36.246Z,17.40
2023-04-18T20:50:30.230Z,15.20
2023-04-18T20:53:26.922Z,16.00
2023-04-18T20:56:20.831Z,18.80
2023-04-18T20:59:14.722Z,16.10
2023-04-18T21:02:09.420Z,18.90
2023-04-18T21:05:04.234Z,17.20
2023-04-18T21:07:59.612Z,16.60
2023-04-18T21:10:53.627Z,16.00
2023-04-18T21:13:47.210Z,20.10
2023-04-18T21:16:41.002Z,17.00
2023-04-18T21:19:35.104Z,18.20
2023-04-18T21:22:28.850Z,17.70
2023-04-18T21:25:22.927Z,19.00
2023-04-18T21:28:16.641Z,17.70
2023-04-18T21:31:10.268Z,17.70
2023-04-18T21:34:05.749Z,18.50
2023-04-18T21:37:00.088Z,17.20
2023-04-18T21:39:53.960Z,15.00
2023-04-18T21:42:50.807Z,18.20
2023-04-18T21:45:44.414Z,16.30
2023-04-18T21:48:38.091Z,16.00
2023-04-18T21:51:32.854Z,17.80
2023-04-18T21:54:26.456Z,17.00
2023-04-18T21:57:20.232Z,18.70
2023-04-18T22:00:16.578Z,14.40
2023-04-18T22:03:10.986Z,17.70
2023-04-18T22:06:05.610Z,17.20
2023-04-18T22:09:00.816Z,16.70
2023-04-18T22:11:56.909Z,18.10
2023-04-18T22:14:52.771Z,18.90
2023-04-18T22:17:47.758Z,18.60
2023-04-18T22:20:42.436Z,19.00
2023-04-18T22:23:36.082Z,17.70
2023-04-18T22:26:30.243Z,17.60
2023-04-18T22:29:23.895Z,17.80
2023-04-18T22:32:17.830Z,19.20
2023-04-18T22:35:13.310Z,17.10
2023-04-18T22:38:07.239Z,18.50
2023-04-18T22:41:01.508Z,19.40
2023-04-18T22:43:55.539Z,18.30
2023-04-18T22:46:49.506Z,19.90
2023-04-18T22:49:44.348Z,19.70
2023-04-18T22:52:38.572Z,20.10
2023-04-18T22:55:32.265Z,18.00
2023-04-18T22:58:25.835Z,17.20
2023-04-18T23:01:19.618Z,17.50
2023-04-18T23:04:16.484Z,20.30
2023-04-18T23:07:10.530Z,18.20
2023-04-18T23:10:04.739Z,17.80
2023-04-18T23:12:58.756Z,17.30
2023-04-18T23:15:52.363Z,20.10
2023-04-18T23:18:45.892Z,20.10
2023-04-18T23:21:39.775Z,17.40
2023-04-18T23:24:34.786Z,18.20
2023-04-18T23:27:28.421Z,18.70
2023-04-18T23:30:22.236Z,18.10
2023-04-18T23:33:16.560Z,18.30
2023-04-18T23:36:11.762Z,20.30
2023-04-18T23:39:05.542Z,17.70
2023-04-18T23:41:59.397Z,19.90
2023-04-18T23:44:53.053Z,17.50
2023-04-18T23:47:46.940Z,19.10
2023-04-18T23:50:49.533Z,17.50
2023-04-18T23:53:43.157Z,18.40
2023-04-18T23:56:37.083Z,18.50
2023-04-18T23:59:30.790Z,19.60
